Time;durP1;ratioP1;P1;durP2;ratioP2;P2;SDS_P1;SDS_P2;PMS_P1;PMS_P2;Temp;Humidity;BMP_temperature;BMP_pressure;BME280_temperature;BME280_humidity;BME280_pressure;Samples;Min_cycle;Max_cycle;Signal;HPM_P1;HPM_P2
2022/07/11 00:00:12;;;;;;;14.77;3.15;;;;;;;;;;5011756;28;20033;-75
2022/07/11 00:02:42;;;;;;;10.82;2.60;;;;;;;;;;5012031;28;20084;-75
2022/07/11 00:05:09;;;;;;;8.40;2.80;;;;;;;;;;5011746;28;20026;-75
2022/07/11 00:07:35;;;;;;;5.88;2.05;;;;;;;;;;5016085;28;20025;-75
2022/07/11 00:10:01;;;;;;;6.38;2.30;;;;;;;;;;5031705;28;20153;-75
2022/07/11 00:12:27;;;;;;;10.30;2.47;;;;;;;;;;5031475;28;20053;-75
2022/07/11 00:14:56;;;;;;;13.73;2.78;;;;;;;;;;5031717;28;20040;-75
2022/07/11 00:17:23;;;;;;;8.90;2.63;;;;;;;;;;5026347;28;20419;-75
2022/07/11 00:19:49;;;;;;;7.45;2.40;;;;;;;;;;5011859;28;20029;-75
2022/07/11 00:22:15;;;;;;;6.40;2.17;;;;;;;;;;5011850;28;20600;-75
2022/07/11 00:24:41;;;;;;;8.20;2.50;;;;;;;;;;5011820;28;20061;-75
2022/07/11 00:27:07;;;;;;;10.50;2.60;;;;;;;;;;5011983;28;20038;-75
2022/07/11 00:29:33;;;;;;;13.50;2.40;;;;;;;;;;5011787;28;20519;-75
2022/07/11 00:31:59;;;;;;;9.65;2.30;;;;;;;;;;5011329;28;20042;-75
2022/07/11 00:34:26;;;;;;;9.43;2.50;;;;;;;;;;5011751;28;20026;-75
2022/07/11 00:36:52;;;;;;;10.63;2.83;;;;;;;;;;5011615;28;20022;-75
2022/07/11 00:39:18;;;;;;;12.50;2.97;;;;;;;;;;5011660;28;20034;-75
2022/07/11 00:41:44;;;;;;;11.50;2.75;;;;;;;;;;5011722;28;20025;-75
2022/07/11 00:44:10;;;;;;;9.45;2.83;;;;;;;;;;5011679;28;20041;-75
2022/07/11 00:46:36;;;;;;;15.80;2.78;;;;;;;;;;5011278;28;20520;-75
2022/07/11 00:49:03;;;;;;;8.48;2.92;;;;;;;;;;5010289;28;20384;-75
2022/07/11 00:51:29;;;;;;;8.30;2.72;;;;;;;;;;5011418;28;20124;-75
2022/07/11 00:53:56;;;;;;;10.85;2.70;;;;;;;;;;5011565;28;20081;-75
2022/07/11 00:56:23;;;;;;;8.18;2.33;;;;;;;;;;5013225;28;20021;-75
2022/07/11 00:58:49;;;;;;;9.00;2.55;;;;;;;;;;5015164;28;20014;-75
2022/07/11 01:01:16;;;;;;;9.60;2.60;;;;;;;;;;5013583;28;20723;-76
2022/07/11 01:03:42;;;;;;;12.75;4.03;;;;;;;;;;5015198;28;20342;-75
2022/07/11 01:06:09;;;;;;;7.05;2.30;;;;;;;;;;5014768;28;20017;-75
2022/07/11 01:08:35;;;;;;;10.40;2.47;;;;;;;;;;5027293;28;20428;-75
2022/07/11 01:11:08;;;;;;;11.60;2.15;;;;;;;;;;5034938;28;20056;-75
2022/07/11 01:13:35;;;;;;;9.07;2.10;;;;;;;;;;5034586;28;20034;-75
2022/07/11 01:16:07;;;;;;;6.63;2.15;;;;;;;;;;5034316;28;20026;-75
2022/07/11 01:18:34;;;;;;;10.80;2.17;;;;;;;;;;5019669;28;20018;-75
2022/07/11 01:21:00;;;;;;;10.90;2.08;;;;;;;;;;5014574;28;20018;-75
2022/07/11 01:23:26;;;;;;;7.20;2.35;;;;;;;;;;5014753;28;20049;-75
2022/07/11 01:25:52;;;;;;;5.35;1.80;;;;;;;;;;5014551;28;20389;-75
2022/07/11 01:28:18;;;;;;;6.07;1.80;;;;;;;;;;5014746;28;20099;-75
2022/07/11 01:30:45;;;;;;;6.60;1.90;;;;;;;;;;5014293;28;20070;-75
2022/07/11 01:33:11;;;;;;;9.63;1.98;;;;;;;;;;5014413;28;20387;-75
2022/07/11 01:35:37;;;;;;;6.00;1.90;;;;;;;;;;5014129;28;20026;-75
2022/07/11 01:38:03;;;;;;;6.78;1.80;;;;;;;;;;5014433;28;20361;-75
2022/07/11 01:40:29;;;;;;;6.15;2.08;;;;;;;;;;5014169;28;20384;-75
2022/07/11 01:42:55;;;;;;;12.70;2.45;;;;;;;;;;5014298;28;20415;-75
2022/07/11 01:45:21;;;;;;;4.90;1.95;;;;;;;;;;5014023;28;20033;-75
2022/07/11 01:47:47;;;;;;;10.80;1.67;;;;;;;;;;5014264;28;20034;-75
2022/07/11 01:50:13;;;;;;;6.35;1.80;;;;;;;;;;5013857;28;20479;-75
2022/07/11 01:52:40;;;;;;;6.00;2.10;;;;;;;;;;5014158;28;20081;-75
2022/07/11 01:55:06;;;;;;;4.22;1.65;;;;;;;;;;5013937;28;20034;-75
2022/07/11 01:57:32;;;;;;;11.95;2.00;;;;;;;;;;5014099;28;20377;-75
2022/07/11 01:59:58;;;;;;;6.68;1.80;;;;;;;;;;5013971;28;20374;-75
2022/07/11 02:02:24;;;;;;;4.70;1.50;;;;;;;;;;5013941;28;20030;-75
2022/07/11 02:04:50;;;;;;;9.75;2.38;;;;;;;;;;5013918;28;20029;-75
2022/07/11 02:08:11;;;;;;;6.40;1.73;;;;;;;;;;5015104;28;20025;-75
2022/07/11 02:10:02;;;;;;;5.90;1.60;;;;;;;;;;5033461;28;20043;-75
2022/07/11 02:12:28;;;;;;;8.25;1.58;;;;;;;;;;5033505;28;20041;-75
2022/07/11 02:14:54;;;;;;;3.50;1.50;;;;;;;;;;5033351;28;20025;-75
2022/07/11 02:17:20;;;;;;;10.80;1.83;;;;;;;;;;5028477;28;20025;-75
2022/07/11 02:19:46;;;;;;;3.92;1.25;;;;;;;;;;5013537;28;20022;-76
2022/07/11 02:22:15;;;;;;;7.28;1.35;;;;;;;;;;5012050;28;20038;-75
2022/07/11 02:24:41;;;;;;;7.28;1.35;;;;;;;;;;5013497;28;20373;-75
2022/07/11 02:27:07;;;;;;;3.33;1.13;;;;;;;;;;5013486;28;20041;-75
2022/07/11 02:29:33;;;;;;;6.57;1.35;;;;;;;;;;5013510;28;20022;-75
2022/07/11 02:31:59;;;;;;;4.35;1.10;;;;;;;;;;5013059;28;20045;-75
2022/07/11 02:34:25;;;;;;;4.85;1.20;;;;;;;;;;5013281;28;20025;-75
2022/07/11 02:36:51;;;;;;;7.05;1.40;;;;;;;;;;5013295;28;20026;-75
2022/07/11 02:39:17;;;;;;;6.95;1.38;;;;;;;;;;5011899;28;20034;-75
2022/07/11 02:41:43;;;;;;;4.82;1.10;;;;;;;;;;5013207;28;20030;-75
2022/07/11 02:44:09;;;;;;;6.38;1.40;;;;;;;;;;5013327;28;20473;-75
2022/07/11 02:46:35;;;;;;;5.53;1.60;;;;;;;;;;5012829;28;20034;-75
2022/07/11 02:49:01;;;;;;;6.07;1.33;;;;;;;;;;5013113;28;20045;-75
2022/07/11 02:51:27;;;;;;;6.45;1.40;;;;;;;;;;5012902;28;20088;-75
2022/07/11 02:53:53;;;;;;;7.30;1.20;;;;;;;;;;5012966;28;20416;-75
2022/07/11 02:56:19;;;;;;;2.53;1.20;;;;;;;;;;5012982;28;20025;-75
2022/07/11 02:58:45;;;;;;;5.78;1.75;;;;;;;;;;5013019;28;20022;-75
2022/07/11 03:01:11;;;;;;;7.22;1.50;;;;;;;;;;5011384;28;20026;-75
2022/07/11 03:03:37;;;;;;;6.78;1.30;;;;;;;;;;5012996;28;20358;-75
2022/07/11 03:06:04;;;;;;;3.63;1.40;;;;;;;;;;5012510;28;20026;-75
2022/07/11 03:08:30;;;;;;;6.95;1.33;;;;;;;;;;5023042;28;20383;-75
2022/07/11 03:10:56;;;;;;;4.80;1.52;;;;;;;;;;5032654;28;20029;-75
2022/07/11 03:13:22;;;;;;;4.15;1.20;;;;;;;;;;5032379;28;20033;-75
2022/07/11 03:15:48;;;;;;;5.93;1.60;;;;;;;;;;5032295;28;20444;-75
2022/07/11 03:18:14;;;;;;;7.07;1.63;;;;;;;;;;5019411;28;20469;-75
2022/07/11 03:20:40;;;;;;;2.92;1.35;;;;;;;;;;5012250;28;20025;-75
2022/07/11 03:23:06;;;;;;;3.17;1.42;;;;;;;;;;5012689;28;20037;-75
2022/07/11 03:25:32;;;;;;;5.90;1.98;;;;;;;;;;5012381;28;20026;-75
2022/07/11 03:27:58;;;;;;;2.83;1.40;;;;;;;;;;5012500;28;20504;-75
2022/07/11 03:30:24;;;;;;;5.45;1.50;;;;;;;;;;5012030;28;20045;-75
2022/07/11 03:32:50;;;;;;;6.43;1.67;;;;;;;;;;5012268;28;20037;-75
2022/07/11 03:38:01;;;;;;;10.35;2.30;;;;;;;;;;5012441;28;20040;-75
2022/07/11 03:40:28;;;;;;;6.82;1.90;;;;;;;;;;5012274;28;20021;-76
2022/07/11 03:42:54;;;;;;;7.75;2.60;;;;;;;;;;5012344;28;20105;-75
2022/07/11 03:45:20;;;;;;;6.07;2.03;;;;;;;;;;5012028;28;20034;-75
2022/07/11 03:47:48;;;;;;;6.30;2.15;;;;;;;;;;5012330;28;20033;-75
2022/07/11 03:50:14;;;;;;;6.95;2.28;;;;;;;;;;5012054;28;20022;-75
2022/07/11 03:52:40;;;;;;;5.95;2.05;;;;;;;;;;5012176;28;20032;-76
2022/07/11 03:55:07;;;;;;;8.95;2.60;;;;;;;;;;5012234;28;20068;-76
2022/07/11 03:57:39;;;;;;;5.47;2.75;;;;;;;;;;5012201;28;20061;-75
2022/07/11 04:00:07;;;;;;;7.03;2.70;;;;;;;;;;5011997;28;20033;-75
2022/07/11 04:02:33;;;;;;;6.47;2.42;;;;;;;;;;5012176;28;20022;-76
2022/07/11 04:04:59;;;;;;;3.70;2.58;;;;;;;;;;5011899;28;20109;-75
2022/07/11 04:07:28;;;;;;;5.60;2.53;;;;;;;;;;5014770;28;20067;-75
2022/07/11 04:09:54;;;;;;;10.50;2.90;;;;;;;;;;5031749;28;20079;-75
2022/07/11 04:12:20;;;;;;;6.45;2.92;;;;;;;;;;5031705;28;20029;-75
2022/07/11 04:14:46;;;;;;;6.45;3.13;;;;;;;;;;5031555;28;20029;-75
2022/07/11 04:17:12;;;;;;;6.75;3.03;;;;;;;;;;5027840;28;20052;-75
2022/07/11 04:19:38;;;;;;;7.78;3.17;;;;;;;;;;5011820;28;20091;-75
2022/07/11 04:22:05;;;;;;;5.97;2.75;;;;;;;;;;5011821;28;20034;-75
2022/07/11 04:24:31;;;;;;;3.75;3.08;;;;;;;;;;5011894;28;20042;-75
2022/07/11 04:26:57;;;;;;;8.80;3.00;;;;;;;;;;5011901;28;20143;-75
2022/07/11 04:29:23;;;;;;;8.55;3.33;;;;;;;;;;5012081;28;20104;-75
2022/07/11 04:31:50;;;;;;;6.55;3.20;;;;;;;;;;5015411;28;20045;-75
2022/07/11 04:34:16;;;;;;;4.68;3.03;;;;;;;;;;5015711;28;20476;-75
2022/07/11 04:36:43;;;;;;;6.80;3.53;;;;;;;;;;5015540;28;20029;-75
2022/07/11 04:39:09;;;;;;;5.30;3.50;;;;;;;;;;5015565;28;20088;-75
2022/07/11 04:41:35;;;;;;;7.18;3.63;;;;;;;;;;5015559;28;20030;-75
2022/07/11 04:44:01;;;;;;;6.88;3.55;;;;;;;;;;5015629;28;20033;-75
2022/07/11 04:46:27;;;;;;;5.40;2.78;;;;;;;;;;5013811;28;20022;-75
2022/07/11 04:48:53;;;;;;;6.82;3.10;;;;;;;;;;5015568;28;20439;-75
2022/07/11 04:51:19;;;;;;;8.35;3.58;;;;;;;;;;5015086;28;20380;-75
2022/07/11 04:53:46;;;;;;;6.72;2.97;;;;;;;;;;5015330;28;20030;-75
2022/07/11 04:56:12;;;;;;;7.15;3.15;;;;;;;;;;5015253;28;20060;-75
2022/07/11 04:58:38;;;;;;;9.07;3.42;;;;;;;;;;5015303;28;20030;-76
2022/07/11 05:01:04;;;;;;;9.20;4.55;;;;;;;;;;5015064;28;20033;-75
2022/07/11 05:03:32;;;;;;;11.70;4.75;;;;;;;;;;5015241;28;20437;-75
2022/07/11 05:05:58;;;;;;;15.43;5.07;;;;;;;;;;5014922;28;20557;-75
2022/07/11 05:08:24;;;;;;;11.07;4.70;;;;;;;;;;5025897;28;20476;-75
2022/07/11 05:10:50;;;;;;;12.57;4.55;;;;;;;;;;5034950;28;20056;-75
2022/07/11 05:13:16;;;;;;;15.77;5.10;;;;;;;;;;5034640;28;20500;-75
2022/07/11 05:15:42;;;;;;;12.68;5.53;;;;;;;;;;5034624;28;20104;-75
2022/07/11 05:18:08;;;;;;;12.50;5.05;;;;;;;;;;5023323;28;20032;-76
2022/07/11 05:20:34;;;;;;;10.55;4.95;;;;;;;;;;5014606;28;20033;-75
2022/07/11 05:23:00;;;;;;;10.40;5.15;;;;;;;;;;5014867;28;20037;-75
2022/07/11 05:25:26;;;;;;;15.35;5.57;;;;;;;;;;5014741;28;20030;-75
2022/07/11 05:27:52;;;;;;;12.60;6.32;;;;;;;;;;5014668;28;20483;-75
2022/07/11 05:30:19;;;;;;;11.02;4.80;;;;;;;;;;5014483;28;20136;-75
2022/07/11 05:32:45;;;;;;;12.85;6.63;;;;;;;;;;5014364;28;20037;-75
2022/07/11 05:35:11;;;;;;;10.93;5.30;;;;;;;;;;5014470;28;20077;-75
2022/07/11 05:37:37;;;;;;;11.43;5.15;;;;;;;;;;5014583;28;20651;-75
2022/07/11 05:40:03;;;;;;;9.82;5.00;;;;;;;;;;5014295;28;20053;-76
2022/07/11 05:42:29;;;;;;;13.80;5.50;;;;;;;;;;5013721;28;20413;-75
2022/07/11 05:44:55;;;;;;;13.18;5.45;;;;;;;;;;5014327;28;20092;-75
2022/07/11 05:47:21;;;;;;;14.50;5.45;;;;;;;;;;5014279;28;20029;-75
2022/07/11 05:49:47;;;;;;;8.90;4.25;;;;;;;;;;5014122;28;20037;-75
2022/07/11 05:52:13;;;;;;;11.02;5.03;;;;;;;;;;5014168;28;20038;-75
2022/07/11 05:54:39;;;;;;;9.43;5.07;;;;;;;;;;5014121;28;20048;-75
2022/07/11 05:57:06;;;;;;;9.18;4.90;;;;;;;;;;5014041;28;20456;-75
2022/07/11 05:59:32;;;;;;;9.65;4.95;;;;;;;;;;5014204;28;20037;-75
2022/07/11 06:01:58;;;;;;;8.07;4.53;;;;;;;;;;5014000;28;20038;-75
2022/07/11 06:04:24;;;;;;;5.18;4.00;;;;;;;;;;5014059;28;20083;-75
2022/07/11 06:06:50;;;;;;;11.23;5.20;;;;;;;;;;5013837;28;20109;-75
2022/07/11 06:09:16;;;;;;;9.02;4.18;;;;;;;;;;5031758;28;20033;-75
2022/07/11 06:11:42;;;;;;;10.73;4.22;;;;;;;;;;5033548;28;20052;-75
2022/07/11 06:14:09;;;;;;;8.32;4.57;;;;;;;;;;5033544;28;20395;-75
2022/07/11 06:16:35;;;;;;;6.15;3.40;;;;;;;;;;5033399;28;20508;-75
2022/07/11 06:19:02;;;;;;;7.88;3.25;;;;;;;;;;5014914;28;20018;-75
2022/07/11 06:21:28;;;;;;;3.97;2.50;;;;;;;;;;5013636;28;20596;-74
2022/07/11 06:23:54;;;;;;;5.32;2.15;;;;;;;;;;5013597;28;20464;-75
2022/07/11 06:26:20;;;;;;;3.28;2.42;;;;;;;;;;5013499;28;20034;-75
2022/07/11 06:28:46;;;;;;;2.95;1.50;;;;;;;;;;5013682;28;20684;-75
2022/07/11 06:31:12;;;;;;;4.25;1.88;;;;;;;;;;5013330;28;20076;-75
2022/07/11 06:33:39;;;;;;;2.08;1.65;;;;;;;;;;5013399;28;20025;-75
2022/07/11 06:36:05;;;;;;;1.73;1.40;;;;;;;;;;5013269;28;20464;-75
2022/07/11 06:38:31;;;;;;;3.10;1.70;;;;;;;;;;5013309;28;20020;-75
2022/07/11 06:40:57;;;;;;;3.63;1.60;;;;;;;;;;5013378;28;20022;-75
2022/07/11 06:43:24;;;;;;;2.60;1.30;;;;;;;;;;5013319;28;20022;-75
2022/07/11 06:45:50;;;;;;;2.13;1.27;;;;;;;;;;5011500;28;20032;-75
2022/07/11 06:48:16;;;;;;;1.95;1.10;;;;;;;;;;5013218;28;20078;-75
2022/07/11 06:50:43;;;;;;;4.07;1.30;;;;;;;;;;5012639;28;20042;-75
2022/07/11 06:53:09;;;;;;;5.07;1.20;;;;;;;;;;5012035;28;20021;-76
2022/07/11 06:55:35;;;;;;;2.78;1.05;;;;;;;;;;5012975;28;20484;-75
2022/07/11 06:58:01;;;;;;;1.90;1.20;;;;;;;;;;5013097;28;20026;-75
2022/07/11 07:00:28;;;;;;;2.42;1.20;;;;;;;;;;5012860;28;20136;-75
2022/07/11 07:02:56;;;;;;;1.88;0.90;;;;;;;;;;5012943;28;20042;-75
2022/07/11 07:05:22;;;;;;;1.30;1.10;;;;;;;;;;5012642;28;20026;-75
2022/07/11 07:07:48;;;;;;;1.55;1.08;;;;;;;;;;5018739;28;20399;-75
2022/07/11 07:10:14;;;;;;;1.75;1.02;;;;;;;;;;5032229;28;20087;-75
2022/07/11 07:12:40;;;;;;;4.20;0.52;;;;;;;;;;5030944;28;20045;-75
2022/07/11 07:15:07;;;;;;;2.83;1.60;;;;;;;;;;5032074;28;20025;-75
2022/07/11 07:17:33;;;;;;;2.35;0.73;;;;;;;;;;5025901;28;20082;-75
2022/07/11 07:19:59;;;;;;;2.22;0.77;;;;;;;;;;5012440;28;20022;-75
2022/07/11 07:22:25;;;;;;;1.65;0.80;;;;;;;;;;5011274;28;20392;-75
2022/07/11 07:24:51;;;;;;;1.73;0.90;;;;;;;;;;5012557;28;20362;-76
2022/07/11 07:27:17;;;;;;;1.63;0.90;;;;;;;;;;5012631;28;20503;-75
2022/07/11 07:29:43;;;;;;;1.50;0.65;;;;;;;;;;5012421;28;20033;-75
2022/07/11 07:32:09;;;;;;;1.98;0.88;;;;;;;;;;5012159;28;20164;-75
2022/07/11 07:34:35;;;;;;;1.27;0.80;;;;;;;;;;5012363;28;20026;-75
2022/07/11 07:37:01;;;;;;;0.93;0.50;;;;;;;;;;5012358;28;20084;-75
2022/07/11 07:39:27;;;;;;;1.08;0.45;;;;;;;;;;5012329;28;20486;-75
2022/07/11 07:41:53;;;;;;;1.80;0.60;;;;;;;;;;5011067;28;20030;-75
2022/07/11 07:44:20;;;;;;;2.42;0.63;;;;;;;;;;5012367;28;20076;-75
2022/07/11 07:46:46;;;;;;;2.28;0.82;;;;;;;;;;5010712;28;20097;-75
2022/07/11 07:49:12;;;;;;;1.05;0.70;;;;;;;;;;5012258;28;20030;-75
2022/07/11 07:51:38;;;;;;;0.80;0.47;;;;;;;;;;5011892;28;20038;-75
2022/07/11 07:54:04;;;;;;;0.70;0.45;;;;;;;;;;5012212;28;20026;-75
2022/07/11 07:56:31;;;;;;;0.70;0.60;;;;;;;;;;5012072;28;20018;-75
2022/07/11 07:58:57;;;;;;;3.97;0.82;;;;;;;;;;5012229;28;20071;-75
2022/07/11 08:01:35;;;;;;;1.25;0.60;;;;;;;;;;5011980;28;20061;-75
2022/07/11 08:04:04;;;;;;;1.83;0.60;;;;;;;;;;5010504;28;20452;-76
2022/07/11 08:06:30;;;;;;;1.73;0.52;;;;;;;;;;5011776;28;20026;-75
2022/07/11 08:08:56;;;;;;;1.55;0.45;;;;;;;;;;5027176;28;20155;-75
2022/07/11 08:11:22;;;;;;;0.85;0.40;;;;;;;;;;5032070;28;20428;-75
2022/07/11 08:13:49;;;;;;;0.52;0.38;;;;;;;;;;5030227;28;20143;-75
2022/07/11 08:16:15;;;;;;;0.80;0.60;;;;;;;;;;5031535;28;20017;-75
2022/07/11 08:18:41;;;;;;;2.55;0.60;;;;;;;;;;5015864;28;20033;-75
2022/07/11 08:21:07;;;;;;;0.75;0.50;;;;;;;;;;5011677;28;20026;-75
2022/07/11 08:23:33;;;;;;;3.20;0.50;;;;;;;;;;5011800;28;20121;-75
2022/07/11 08:25:59;;;;;;;1.40;0.60;;;;;;;;;;5011862;28;20034;-75
2022/07/11 08:28:25;;;;;;;0.50;0.50;;;;;;;;;;5010476;28;20026;-75
2022/07/11 08:30:51;;;;;;;1.67;0.50;;;;;;;;;;5011378;28;20026;-75
2022/07/11 08:33:17;;;;;;;1.00;0.60;;;;;;;;;;5011789;28;20437;-75
2022/07/11 08:35:43;;;;;;;1.08;0.68;;;;;;;;;;5011615;28;20121;-75
2022/07/11 08:38:11;;;;;;;1.70;0.60;;;;;;;;;;5010340;28;20125;-75
2022/07/11 08:40:37;;;;;;;1.02;0.43;;;;;;;;;;5011780;28;20126;-75
2022/07/11 08:43:05;;;;;;;1.45;0.65;;;;;;;;;;5012096;28;20450;-75
2022/07/11 08:45:32;;;;;;;1.42;0.60;;;;;;;;;;5011646;28;20033;-75
2022/07/11 08:47:58;;;;;;;2.58;0.60;;;;;;;;;;5010637;28;20041;-75
2022/07/11 08:50:27;;;;;;;0.93;0.52;;;;;;;;;;5010507;28;20100;-75
2022/07/11 08:52:57;;;;;;;1.83;0.38;;;;;;;;;;5011665;28;20461;-75
2022/07/11 08:55:24;;;;;;;0.93;0.32;;;;;;;;;;5011849;28;20116;-75
2022/07/11 08:57:50;;;;;;;0.68;0.50;;;;;;;;;;5011691;28;20025;-75
2022/07/11 09:00:16;;;;;;;0.70;0.50;;;;;;;;;;5011336;28;20495;-75
2022/07/11 09:02:43;;;;;;;2.03;0.60;;;;;;;;;;5011619;28;20030;-75
2022/07/11 09:05:10;;;;;;;1.15;0.47;;;;;;;;;;5011513;28;20030;-75
2022/07/11 09:07:42;;;;;;;0.90;0.40;;;;;;;;;;5015593;28;20049;-75
2022/07/11 09:10:09;;;;;;;2.83;0.40;;;;;;;;;;5031192;28;20065;-75
2022/07/11 09:12:35;;;;;;;1.10;0.50;;;;;;;;;;5030978;28;20046;-75
2022/07/11 09:15:01;;;;;;;1.05;0.30;;;;;;;;;;5030932;28;20030;-75
2022/07/11 09:17:28;;;;;;;0.75;0.52;;;;;;;;;;5027092;28;20025;-75
2022/07/11 09:19:55;;;;;;;0.88;0.45;;;;;;;;;;5014702;28;20061;-75
2022/07/11 09:27:53;;;;;;;2.05;0.30;;;;;;;;;;5014977;28;20044;-75
2022/07/11 09:30:26;;;;;;;0.45;0.43;;;;;;;;;;5014585;28;20022;-75
2022/07/11 09:32:56;;;;;;;1.08;0.40;;;;;;;;;;5014419;28;20057;-76
2022/07/11 09:35:23;;;;;;;1.05;0.70;;;;;;;;;;5014463;28;20061;-75
2022/07/11 09:37:49;;;;;;;1.35;0.40;;;;;;;;;;5014459;28;20022;-76
2022/07/11 09:40:17;;;;;;;0.98;0.47;;;;;;;;;;5014411;28;20033;-76
2022/07/11 09:42:47;;;;;;;0.98;0.40;;;;;;;;;;5014600;28;20026;-75
2022/07/11 09:45:13;;;;;;;0.75;0.60;;;;;;;;;;5014049;28;20036;-75
2022/07/11 09:48:06;;;;;;;1.05;0.43;;;;;;;;;;5014471;28;20038;-75
2022/07/11 09:50:32;;;;;;;4.78;0.68;;;;;;;;;;5011249;28;20045;-75
2022/07/11 09:53:18;;;;;;;0.65;0.30;;;;;;;;;;5014187;28;20038;-75
2022/07/11 09:55:46;;;;;;;2.78;0.60;;;;;;;;;;5014091;28;20038;-75
2022/07/11 09:58:16;;;;;;;0.65;0.50;;;;;;;;;;5014135;28;20017;-76
2022/07/11 10:00:43;;;;;;;3.30;0.60;;;;;;;;;;5014034;28;20099;-75
2022/07/11 10:03:10;;;;;;;0.63;0.40;;;;;;;;;;5012682;28;20029;-75
2022/07/11 10:05:36;;;;;;;1.63;0.40;;;;;;;;;;5013876;28;20377;-75
2022/07/11 10:08:03;;;;;;;1.05;0.43;;;;;;;;;;5020305;28;20033;-75
2022/07/11 10:10:29;;;;;;;1.48;0.35;;;;;;;;;;5033894;28;20044;-75
2022/07/11 10:12:56;;;;;;;1.52;0.50;;;;;;;;;;5033451;28;20455;-75
2022/07/11 10:15:33;;;;;;;0.95;0.30;;;;;;;;;;5033399;28;20014;-75
2022/07/11 10:18:05;;;;;;;0.80;0.30;;;;;;;;;;5023591;28;20469;-75
2022/07/11 10:20:31;;;;;;;;;;;;;;;;;;5014002;28;20048;-76
2022/07/11 10:23:03;;;;;;;1.23;0.50;;;;;;;;;;5013760;28;20399;-76
2022/07/11 10:25:33;;;;;;;0.98;0.60;;;;;;;;;;5013517;28;20514;-76
2022/07/11 10:28:21;;;;;;;1.17;0.60;;;;;;;;;;5013312;28;20490;-76
2022/07/11 10:30:49;;;;;;;3.85;0.80;;;;;;;;;;5013246;28;20033;-75
2022/07/11 10:33:16;;;;;;;2.80;0.68;;;;;;;;;;5013535;28;20387;-75
2022/07/11 10:35:46;;;;;;;0.70;0.60;;;;;;;;;;5011896;28;20028;-75
2022/07/11 10:38:12;;;;;;;0.93;0.57;;;;;;;;;;5013297;28;20025;-75
2022/07/11 10:40:50;;;;;;;2.30;0.70;;;;;;;;;;5013198;28;20115;-76
2022/07/11 10:43:16;;;;;;;0.80;0.50;;;;;;;;;;5013348;28;20034;-76
2022/07/11 10:45:56;;;;;;;0.90;0.30;;;;;;;;;;5011492;28;20041;-76
2022/07/11 10:48:23;;;;;;;0.70;0.38;;;;;;;;;;5013162;28;20026;-75
2022/07/11 10:50:54;;;;;;;1.00;0.30;;;;;;;;;;5012974;28;20510;-75
2022/07/11 10:53:24;;;;;;;1.90;0.70;;;;;;;;;;5013009;28;20038;-76
2022/07/11 10:55:52;;;;;;;1.17;0.60;;;;;;;;;;5013015;28;20330;-75
2022/07/11 10:58:31;;;;;;;0.82;0.40;;;;;;;;;;5012978;28;20069;-76
2022/07/11 11:01:13;;;;;;;1.63;0.60;;;;;;;;;;5011482;28;20391;-75
2022/07/11 11:03:39;;;;;;;0.80;0.40;;;;;;;;;;5012984;28;20029;-75
2022/07/11 11:06:06;;;;;;;2.00;0.50;;;;;;;;;;5012545;28;20057;-75
2022/07/11 11:08:35;;;;;;;0.95;0.60;;;;;;;;;;5024603;28;20022;-75
2022/07/11 11:11:02;;;;;;;1.45;0.70;;;;;;;;;;5032313;28;20029;-75
2022/07/11 11:13:28;;;;;;;5.75;0.70;;;;;;;;;;5032590;28;20483;-74
2022/07/11 11:15:58;;;;;;;1.27;0.63;;;;;;;;;;5032424;28;20062;-74
2022/07/11 11:18:24;;;;;;;1.15;0.60;;;;;;;;;;5019139;28;20505;-74
2022/07/11 11:20:59;;;;;;;0.70;0.60;;;;;;;;;;5012625;28;20022;-74
2022/07/11 11:23:26;;;;;;;0.73;0.43;;;;;;;;;;5012916;28;20714;-74
2022/07/11 11:25:52;;;;;;;3.15;0.70;;;;;;;;;;5012462;28;20026;-74
2022/07/11 11:28:22;;;;;;;1.00;0.73;;;;;;;;;;5012649;28;20046;-74
2022/07/11 11:30:55;;;;;;;2.03;0.73;;;;;;;;;;5012187;28;20033;-74
2022/07/11 11:33:21;;;;;;;4.10;0.63;;;;;;;;;;5012255;28;20026;-74
2022/07/11 11:35:58;;;;;;;1.15;0.60;;;;;;;;;;5012017;28;20036;-74
2022/07/11 11:38:25;;;;;;;1.08;0.57;;;;;;;;;;5012438;28;20026;-74
2022/07/11 11:40:51;;;;;;;5.72;0.60;;;;;;;;;;5011744;28;20026;-74
2022/07/11 11:43:20;;;;;;;1.10;0.57;;;;;;;;;;5012267;28;20026;-74
2022/07/11 11:45:48;;;;;;;4.40;0.57;;;;;;;;;;5012291;28;20034;-74
2022/07/11 11:48:26;;;;;;;3.22;0.60;;;;;;;;;;5012214;28;20056;-74
2022/07/11 11:50:53;;;;;;;0.70;0.43;;;;;;;;;;5011921;28;20159;-75
2022/07/11 11:53:19;;;;;;;2.97;0.50;;;;;;;;;;5012103;28;20088;-75
2022/07/11 11:55:45;;;;;;;1.00;0.40;;;;;;;;;;5012167;28;20034;-75
2022/07/11 11:58:11;;;;;;;0.77;0.50;;;;;;;;;;5012225;28;20026;-75
2022/07/11 12:00:37;;;;;;;3.50;0.55;;;;;;;;;;5012004;28;20302;-75
2022/07/11 12:03:03;;;;;;;0.45;0.40;;;;;;;;;;5012085;28;20030;-75
2022/07/11 12:05:29;;;;;;;2.10;0.52;;;;;;;;;;5011902;28;20045;-75
2022/07/11 12:07:55;;;;;;;1.02;0.50;;;;;;;;;;5018825;28;20025;-75
2022/07/11 12:10:22;;;;;;;1.75;0.40;;;;;;;;;;5031614;28;20029;-75
2022/07/11 12:12:48;;;;;;;1.63;0.70;;;;;;;;;;5031717;28;20036;-75
2022/07/11 12:15:28;;;;;;;4.38;0.60;;;;;;;;;;5031402;28;20032;-75
2022/07/11 12:17:59;;;;;;;1.90;0.60;;;;;;;;;;5022298;28;20045;-75
2022/07/11 12:20:35;;;;;;;4.47;0.60;;;;;;;;;;5011607;28;20034;-75
2022/07/11 12:23:01;;;;;;;2.50;0.80;;;;;;;;;;5011392;28;20456;-74
2022/07/11 12:25:28;;;;;;;4.35;0.77;;;;;;;;;;5011761;28;20072;-74
2022/07/11 12:27:57;;;;;;;3.60;0.40;;;;;;;;;;5011873;28;20030;-74
2022/07/11 12:30:24;;;;;;;0.52;0.35;;;;;;;;;;5011631;28;20476;-74
2022/07/11 12:33:09;;;;;;;1.42;0.38;;;;;;;;;;5011593;28;20374;-75
2022/07/11 12:35:35;;;;;;;1.45;0.40;;;;;;;;;;5011530;28;20022;-75
2022/07/11 12:38:01;;;;;;;1.40;0.50;;;;;;;;;;5011812;28;20355;-75
2022/07/11 12:40:27;;;;;;;4.20;0.52;;;;;;;;;;5011412;28;20018;-75
2022/07/11 12:42:54;;;;;;;0.90;0.45;;;;;;;;;;5010311;28;20065;-75
2022/07/11 12:45:20;;;;;;;1.25;0.50;;;;;;;;;;5011499;28;20029;-75
2022/07/11 12:47:51;;;;;;;1.55;0.68;;;;;;;;;;5026763;28;20026;-75
2022/07/11 12:50:17;;;;;;;1.42;0.40;;;;;;;;;;5011432;28;20388;-75
2022/07/11 12:52:47;;;;;;;0.50;0.40;;;;;;;;;;5015167;28;20025;-75
2022/07/11 12:55:20;;;;;;;1.55;0.45;;;;;;;;;;5015257;28;20043;-75
2022/07/11 12:58:09;;;;;;;1.25;0.50;;;;;;;;;;5015274;28;20376;-75
2022/07/11 13:00:36;;;;;;;1.33;0.40;;;;;;;;;;5015003;28;20347;-75
2022/07/11 13:03:03;;;;;;;0.75;0.35;;;;;;;;;;5015060;28;20117;-75
2022/07/11 13:05:29;;;;;;;3.72;0.60;;;;;;;;;;5014745;28;20053;-75
2022/07/11 13:11:00;;;;;;;1.17;0.60;;;;;;;;;;5035009;28;20375;-75
2022/07/11 13:13:26;;;;;;;0.80;0.40;;;;;;;;;;5034615;28;20080;-75
2022/07/11 13:15:53;;;;;;;0.32;0.30;;;;;;;;;;5034570;28;20064;-75
2022/07/11 13:18:19;;;;;;;1.38;0.40;;;;;;;;;;5021821;28;20018;-75
2022/07/11 13:20:45;;;;;;;0.77;0.38;;;;;;;;;;5014631;28;20105;-75
2022/07/11 13:23:11;;;;;;;11.50;0.93;;;;;;;;;;5014991;28;20034;-75
2022/07/11 13:25:37;;;;;;;0.60;0.25;;;;;;;;;;5014386;28;20030;-75
2022/07/11 13:28:03;;;;;;;0.60;0.30;;;;;;;;;;5014701;28;20060;-75
2022/07/11 13:30:30;;;;;;;0.60;0.30;;;;;;;;;;5014565;28;20036;-75
2022/07/11 13:32:57;;;;;;;0.63;0.40;;;;;;;;;;5014159;28;20038;-75
2022/07/11 13:35:23;;;;;;;0.47;0.22;;;;;;;;;;5014457;28;20026;-75
2022/07/11 13:37:49;;;;;;;3.45;0.40;;;;;;;;;;5013312;28;20034;-75
2022/07/11 13:40:17;;;;;;;0.52;0.50;;;;;;;;;;5014270;28;20105;-75
2022/07/11 13:42:48;;;;;;;0.57;0.43;;;;;;;;;;5014420;28;20471;-75
2022/07/11 13:45:15;;;;;;;0.40;0.33;;;;;;;;;;5013973;28;20064;-75
2022/07/11 13:47:42;;;;;;;0.77;0.40;;;;;;;;;;5014385;28;20033;-74
2022/07/11 13:50:09;;;;;;;0.52;0.40;;;;;;;;;;5012815;28;20040;-74
2022/07/11 13:52:35;;;;;;;1.10;0.40;;;;;;;;;;5014181;28;20026;-75
2022/07/11 13:55:01;;;;;;;1.58;0.35;;;;;;;;;;5014201;28;20487;-75
2022/07/11 13:57:27;;;;;;;1.25;0.40;;;;;;;;;;5014059;28;20124;-75
2022/07/11 13:59:53;;;;;;;0.60;0.30;;;;;;;;;;5014005;28;20029;-75
2022/07/11 14:02:19;;;;;;;0.50;0.30;;;;;;;;;;5013381;28;20033;-75
2022/07/11 14:04:46;;;;;;;2.53;0.40;;;;;;;;;;5013834;28;20464;-75
2022/07/11 14:07:12;;;;;;;5.75;0.40;;;;;;;;;;5014563;28;20026;-75
2022/07/11 14:09:39;;;;;;;0.80;0.40;;;;;;;;;;5033570;28;20112;-75
2022/07/11 14:12:05;;;;;;;4.82;0.65;;;;;;;;;;5033529;28;20033;-75
2022/07/11 14:14:35;;;;;;;0.40;0.20;;;;;;;;;;5033637;28;20037;-75
2022/07/11 14:17:01;;;;;;;0.55;0.25;;;;;;;;;;5031297;28;20033;-75
2022/07/11 14:19:27;;;;;;;1.58;0.40;;;;;;;;;;5013707;28;20022;-75
2022/07/11 14:21:54;;;;;;;1.20;0.40;;;;;;;;;;5013511;28;20149;-75
2022/07/11 14:24:20;;;;;;;0.40;0.20;;;;;;;;;;5013759;28;20033;-75
2022/07/11 14:26:46;;;;;;;0.95;0.40;;;;;;;;;;5013593;28;20022;-75
2022/07/11 14:29:12;;;;;;;1.00;0.20;;;;;;;;;;5013543;28;20447;-75
2022/07/11 14:31:39;;;;;;;0.20;0.20;;;;;;;;;;5013155;28;20046;-75
2022/07/11 14:34:05;;;;;;;0.90;0.30;;;;;;;;;;5013464;28;20029;-75
2022/07/11 14:36:31;;;;;;;3.42;0.20;;;;;;;;;;5013385;28;20017;-75
2022/07/11 14:38:57;;;;;;;0.40;0.20;;;;;;;;;;5013529;28;20026;-74
2022/07/11 14:41:23;;;;;;;0.25;0.22;;;;;;;;;;5013514;28;20062;-75
2022/07/11 14:43:50;;;;;;;1.63;0.17;;;;;;;;;;5013307;28;20042;-74
2022/07/11 14:46:16;;;;;;;0.40;0.22;;;;;;;;;;5012890;28;20028;-75
2022/07/11 14:48:43;;;;;;;4.15;0.65;;;;;;;;;;5013294;28;20026;-75
2022/07/11 14:51:09;;;;;;;0.28;0.20;;;;;;;;;;5011418;28;20439;-75